Historique des mesures à Cassis (13260), France
Quotidien Résumé Janvier 5, 2017 Unités:  Métrique    US   Métrique/US
« Précédent (Jour)
Suivant (Jour) »
Quotidien Hebdomadaire Mensuel Annuel Période au choix
  Maximum: Minimum: Moyenne:
Température: TemperatureC °C 4.9 °C 6.1 °C
Point de rosée: DewpointC °C -4.3 °C -2.3 °C
Humidité: Humidity % 45 % 52 %
Vitesse du vent: 0 km/h 8 km/h 30.4 km/h
Rafales: 0 km/h - -
Vent:- - South
Pression: PressurehPa hPa 1010.0 hPa -
Précipitations: 0.0 mm    
Historical Graphs
 
 
Mesures pour : Janvier 5, 2017
Heure Temperature Point de rosée Pression Vent Vitesse du vent Rafales Humidité Pluie (par heure) Conditions
TemperatureC °C DewpointC °C PressurehPa hPa Calm     Humidity % HourlyPrecipMM mm SoftwareType W/m2
00:12 6.5 °C -0.9 °C 1010.4 hPa NW 64.2 km/h 64.2 km/h 59 % 0.0 mm open2300-1.11 W/m2
01:10 6.9 °C -0.8 °C 1010.0 hPa North 51.5 km/h 51.5 km/h 58 % 0.0 mm open2300-1.11 W/m2
02:11 6.6 °C -0.4 °C 1010.0 hPa North 40.7 km/h 60.8 km/h 61 % 0.0 mm open2300-1.11 W/m2
03:10 6.0 °C -0.6 °C 1011.1 hPa NW 51 km/h 52.8 km/h 63 % 0.0 mm open2300-1.11 W/m2
04:11 5.9 °C -1.1 °C 1011.7 hPa NNW 61.3 km/h 61.3 km/h 61 % 0.0 mm open2300-1.11 W/m2
05:10 5.6 °C -1.1 °C 1011.7 hPa NW 36.5 km/h 103.6 km/h 62 % 0.0 mm open2300-1.11 W/m2
06:11 5.5 °C -1.4 °C 1011.7 hPa North 39.4 km/h 63.7 km/h 61 % 0.0 mm open2300-1.11 W/m2
07:10 5.2 °C -1.9 °C 1013.1 hPa NNW 29.5 km/h 79.2 km/h 60 % 0.0 mm open2300-1.11 W/m2
08:11 4.9 °C -2.2 °C 1014.1 hPa North 33.6 km/h 35.2 km/h 60 % 0.0 mm open2300-1.11 W/m2
09:10 4.9 °C -2.0 °C 1014.1 hPa North 52.8 km/h 52.8 km/h 61 % 0.0 mm open2300-1.11 W/m2
10:11 5.7 °C -2.4 °C 1014.8 hPa NNW 41.7 km/h 48.6 km/h 56 % 0.0 mm open2300-1.11 W/m2
11:10 6.8 °C -2.2 °C 1015.1 hPa North 24.3 km/h 54.4 km/h 53 % 0.0 mm open2300-1.11 W/m2
12:11 7.8 °C -2.0 °C 1014.8 hPa NNW 19.2 km/h 41.2 km/h 50 % 0.0 mm open2300-1.11 W/m2
13:10 8.1 °C -1.7 °C 1014.1 hPa NNE 33.6 km/h 33.6 km/h 50 % 0.0 mm open2300-1.11 W/m2
14:11 8.3 °C -2.4 °C 1013.8 hPa WNW 30.1 km/h 66 km/h 47 % 0.0 mm open2300-1.11 W/m2
15:10 8.1 °C -2.9 °C 1013.8 hPa WNW 29 km/h 56.2 km/h 46 % 0.0 mm open2300-1.11 W/m2
16:11 7.8 °C -3.5 °C 1014.4 hPa NNE 10.3 km/h 56.6 km/h 45 % 0.0 mm open2300-1.11 W/m2
17:10 7.2 °C -3.7 °C 1015.1 hPa NW 11.6 km/h 35.2 km/h 46 % 0.0 mm open2300-1.11 W/m2
18:11 6.4 °C -3.8 °C 1015.8 hPa NW 25.4 km/h 51 km/h 48 % 0.0 mm open2300-1.11 W/m2
19:10 6.1 °C -3.8 °C 1016.5 hPa West 23.8 km/h 37.5 km/h 49 % 0.0 mm open2300-1.11 W/m2
20:11 5.8 °C -3.8 °C 1017.2 hPa NNE 20.3 km/h 37 km/h 50 % 0.0 mm open2300-1.11 W/m2
21:10 5.5 °C -4.1 °C 1017.8 hPa West 8.9 km/h 26.7 km/h 50 % 0.0 mm open2300-1.11 W/m2
22:11 5.3 °C -4.3 °C 1018.5 hPa WNW 13.2 km/h 29.5 km/h 50 % 0.0 mm open2300-1.11 W/m2
23:10 5.1 °C -4.3 °C 1018.8 hPa North 8 km/h 28.5 km/h 51 % 0.0 mm open2300-1.11 W/m2
Observations météo à CASSIS
WU-History script by Weather Underground - 1 mb